createdAt,value
2022-09-16T00:00:32.369Z,100470.13
2022-09-16T00:02:59.105Z,100476.91
2022-09-16T00:05:26.181Z,100483.44
2022-09-16T00:07:53.531Z,100485.47
2022-09-16T00:10:21.533Z,100486.66
2022-09-16T00:12:48.782Z,100487.03
2022-09-16T00:15:15.716Z,100490.03
2022-09-16T00:17:42.213Z,100489.47
2022-09-16T00:20:08.961Z,100489.31
2022-09-16T00:22:35.673Z,100478.28
2022-09-16T00:25:02.192Z,100479.50
2022-09-16T00:27:28.877Z,100477.94
2022-09-16T00:29:55.332Z,100482.78
2022-09-16T00:32:24.025Z,100478.72
2022-09-16T00:34:51.195Z,100484.66
2022-09-16T00:37:17.947Z,100486.41
2022-09-16T00:39:44.481Z,100485.94
2022-09-16T00:42:12.135Z,100486.06
2022-09-16T00:44:59.759Z,100480.28
2022-09-16T00:47:38.715Z,100485.44
2022-09-16T00:50:16.751Z,100486.53
2022-09-16T00:52:43.598Z,100481.75
2022-09-16T00:55:17.243Z,100475.41
2022-09-16T00:57:44.955Z,100476.97
2022-09-16T01:00:13.531Z,100479.16
2022-09-16T01:02:42.441Z,100480.91
2022-09-16T01:05:13.947Z,100478.13
2022-09-16T01:07:49.200Z,100473.00
2022-09-16T01:10:23.439Z,100484.28
2022-09-16T01:13:03.683Z,100480.03
2022-09-16T01:16:06.747Z,100481.34
2022-09-16T01:18:42.678Z,100493.25
2022-09-16T01:21:31.345Z,100486.66
2022-09-16T01:24:22.274Z,100486.03
2022-09-16T01:27:14.519Z,100484.03
2022-09-16T01:30:14.545Z,100486.03
2022-09-16T01:32:58.687Z,100479.59
2022-09-16T01:35:45.463Z,100481.28
2022-09-16T01:38:27.154Z,100479.53
2022-09-16T01:41:06.088Z,100483.00
2022-09-16T01:43:51.718Z,100474.94
2022-09-16T01:46:36.352Z,100480.28
2022-09-16T01:49:15.051Z,100486.94
2022-09-16T01:51:49.545Z,100476.16
2022-09-16T01:54:27.800Z,100476.78
2022-09-16T01:57:04.715Z,100478.97
2022-09-16T01:59:38.203Z,100475.63
2022-09-16T02:02:11.953Z,100472.25
2022-09-16T02:04:54.527Z,100474.63
2022-09-16T02:07:26.963Z,100480.31
2022-09-16T02:10:00.166Z,100474.88
2022-09-16T02:12:34.658Z,100469.84
2022-09-16T02:15:08.272Z,100464.16
2022-09-16T02:17:40.428Z,100465.53
2022-09-16T02:20:11.196Z,100465.19
2022-09-16T02:22:44.896Z,100465.25
2022-09-16T02:25:14.117Z,100468.75
2022-09-16T02:27:43.416Z,100474.88
2022-09-16T02:30:15.246Z,100467.72
2022-09-16T02:32:46.409Z,100464.50
2022-09-16T02:35:17.968Z,100471.94
2022-09-16T02:37:57.335Z,100479.53
2022-09-16T02:40:35.148Z,100471.50
2022-09-16T02:43:02.470Z,100470.59
2022-09-16T02:46:02.230Z,100460.25
2022-09-16T02:48:39.801Z,100459.59
2022-09-16T02:51:27.602Z,100458.78
2022-09-16T02:53:59.670Z,100461.97
2022-09-16T02:56:46.561Z,100455.00
2022-09-16T02:59:15.411Z,100458.41
2022-09-16T03:01:46.820Z,100457.56
2022-09-16T03:04:16.082Z,100459.75
2022-09-16T03:06:43.011Z,100457.72
2022-09-16T03:09:14.752Z,100454.91
2022-09-16T03:12:16.678Z,100450.78
2022-09-16T03:14:53.058Z,100459.97
2022-09-16T03:17:50.554Z,100459.31
2022-09-16T03:20:38.413Z,100449.03
2022-09-16T03:23:13.803Z,100453.28
2022-09-16T03:25:40.180Z,100445.03
2022-09-16T03:28:16.943Z,100434.94
2022-09-16T03:31:04.908Z,100440.75
2022-09-16T03:33:39.527Z,100430.75
2022-09-16T03:36:09.305Z,100446.88
2022-09-16T03:38:38.571Z,100444.28
2022-09-16T03:41:07.799Z,100443.91
2022-09-16T03:43:34.303Z,100438.31
2022-09-16T03:46:00.777Z,100433.09
2022-09-16T03:48:27.547Z,100430.06
2022-09-16T03:50:54.079Z,100428.41
2022-09-16T03:53:20.581Z,100428.41
2022-09-16T03:55:50.195Z,100433.28
2022-09-16T03:58:16.724Z,100430.16
2022-09-16T04:00:43.248Z,100430.50
2022-09-16T04:03:09.743Z,100435.19
2022-09-16T04:05:36.243Z,100425.19
2022-09-16T04:08:02.913Z,100430.88
2022-09-16T04:10:29.730Z,100426.66
2022-09-16T04:12:59.023Z,100426.66
2022-09-16T04:15:25.510Z,100425.81
2022-09-16T04:17:52.231Z,100426.47
2022-09-16T04:20:18.900Z,100423.81
2022-09-16T04:22:45.409Z,100419.88
2022-09-16T04:25:11.822Z,100422.88
2022-09-16T04:27:38.295Z,100428.00
2022-09-16T04:30:05.108Z,100423.88
2022-09-16T04:32:31.559Z,100425.25
2022-09-16T04:34:57.974Z,100420.47
2022-09-16T04:37:24.508Z,100422.00
2022-09-16T04:39:51.000Z,100419.75
2022-09-16T04:42:17.504Z,100413.81
2022-09-16T04:44:44.770Z,100414.44
2022-09-16T04:47:11.392Z,100417.09
2022-09-16T04:49:37.840Z,100427.38
2022-09-16T04:52:04.393Z,100423.44
2022-09-16T04:54:30.862Z,100428.91
2022-09-16T04:56:57.717Z,100430.16
2022-09-16T04:59:24.242Z,100435.66
2022-09-16T05:01:50.870Z,100425.88
2022-09-16T05:04:17.416Z,100428.59
2022-09-16T05:06:44.538Z,100436.06
2022-09-16T05:09:12.531Z,100435.38
2022-09-16T05:11:40.510Z,100439.69
2022-09-16T05:14:12.131Z,100437.00
2022-09-16T05:16:38.628Z,100438.31
2022-09-16T05:19:05.236Z,100433.00
2022-09-16T05:21:34.399Z,100430.97
2022-09-16T05:24:02.819Z,100433.28
2022-09-16T05:26:31.585Z,100434.88
2022-09-16T05:29:05.942Z,100424.72
2022-09-16T05:31:38.065Z,100429.88
2022-09-16T05:34:07.344Z,100432.22
2022-09-16T05:36:36.375Z,100434.09
2022-09-16T05:41:54.508Z,100422.94
2022-09-16T05:44:21.186Z,100429.06
2022-09-16T05:46:47.644Z,100432.41
2022-09-16T05:49:20.320Z,100427.50
2022-09-16T05:51:48.445Z,100428.34
2022-09-16T05:54:14.965Z,100429.47
2022-09-16T05:56:41.603Z,100438.91
2022-09-16T05:59:12.260Z,100435.50
2022-09-16T06:01:38.779Z,100438.84
2022-09-16T06:04:07.481Z,100442.22
2022-09-16T06:06:37.013Z,100433.53
2022-09-16T06:09:32.730Z,100435.19
2022-09-16T06:12:02.274Z,100430.88
2022-09-16T06:14:29.192Z,100437.41
2022-09-16T06:16:55.966Z,100440.63
2022-09-16T06:19:22.619Z,100443.41
2022-09-16T06:21:49.395Z,100439.28
2022-09-16T06:24:17.390Z,100435.41
2022-09-16T06:26:45.409Z,100442.09
2022-09-16T06:29:12.390Z,100435.03
2022-09-16T06:31:39.567Z,100426.53
2022-09-16T06:34:07.445Z,100424.69
2022-09-16T06:36:42.799Z,100429.72
2022-09-16T06:39:13.530Z,100427.63
2022-09-16T06:41:40.001Z,100434.78
2022-09-16T06:44:06.463Z,100426.28
2022-09-16T06:46:32.957Z,100427.28
2022-09-16T06:49:04.527Z,100431.09
2022-09-16T06:51:32.485Z,100427.59
2022-09-16T06:54:01.661Z,100428.00
2022-09-16T06:56:28.319Z,100426.66
2022-09-16T06:58:58.130Z,100435.47
2022-09-16T07:01:30.090Z,100437.81
2022-09-16T07:03:58.442Z,100426.69
2022-09-16T07:06:50.759Z,100434.13
2022-09-16T07:09:14.660Z,100433.53
2022-09-16T07:11:41.137Z,100435.41
2022-09-16T07:14:08.287Z,100436.41
2022-09-16T07:16:34.860Z,100445.19
2022-09-16T07:19:01.990Z,100440.47
2022-09-16T07:21:30.366Z,100437.56
2022-09-16T07:23:59.218Z,100449.81
2022-09-16T07:26:29.071Z,100448.25
2022-09-16T07:28:58.297Z,100444.66
2022-09-16T07:31:27.735Z,100449.81
2022-09-16T07:34:01.282Z,100452.53
2022-09-16T07:36:34.360Z,100448.72
2022-09-16T07:39:01.577Z,100446.84
2022-09-16T07:41:30.775Z,100450.97
2022-09-16T07:43:59.351Z,100444.66
2022-09-16T07:46:28.481Z,100446.97
2022-09-16T07:48:55.566Z,100448.66
2022-09-16T07:51:24.443Z,100449.75
2022-09-16T07:53:55.292Z,100451.03
2022-09-16T07:56:25.410Z,100451.28
2022-09-16T07:58:53.221Z,100455.72
2022-09-16T08:01:20.029Z,100452.81
2022-09-16T08:03:47.092Z,100459.63
2022-09-16T08:06:19.754Z,100472.44
2022-09-16T08:08:47.141Z,100470.16
2022-09-16T08:11:15.050Z,100470.59
2022-09-16T08:13:42.982Z,100476.16
2022-09-16T08:16:13.687Z,100477.81
2022-09-16T08:18:40.872Z,100488.00
2022-09-16T08:21:13.227Z,100489.19
2022-09-16T08:23:40.611Z,100489.16
2022-09-16T08:26:10.686Z,100496.69
2022-09-16T08:28:57.473Z,100495.50
2022-09-16T08:31:28.837Z,100494.44
2022-09-16T08:33:56.245Z,100491.13
2022-09-16T08:36:24.425Z,100494.31
2022-09-16T08:38:53.479Z,100497.75
2022-09-16T08:41:39.687Z,100494.69
2022-09-16T08:44:13.749Z,100497.59
2022-09-16T08:46:50.573Z,100488.03
2022-09-16T08:49:26.763Z,100497.78
2022-09-16T08:51:55.015Z,100498.91
2022-09-16T08:54:27.785Z,100504.47
2022-09-16T08:56:57.790Z,100497.84
2022-09-16T08:59:27.624Z,100499.78
2022-09-16T09:02:17.304Z,100505.81
2022-09-16T09:04:44.270Z,100512.78
2022-09-16T09:07:27.974Z,100508.97
2022-09-16T09:10:13.189Z,100509.63
2022-09-16T09:12:44.304Z,100511.47
2022-09-16T09:15:28.662Z,100516.38
2022-09-16T09:18:27.643Z,100514.97
2022-09-16T09:21:09.750Z,100507.56
2022-09-16T09:24:16.365Z,100515.53
2022-09-16T09:26:45.656Z,100507.09
2022-09-16T09:29:22.186Z,100498.75
2022-09-16T09:32:06.928Z,100498.38
2022-09-16T09:34:42.421Z,100496.31
2022-09-16T09:37:36.417Z,100500.69
2022-09-16T09:40:29.793Z,100492.78
2022-09-16T09:43:17.535Z,100486.03
2022-09-16T09:45:56.412Z,100488.25
2022-09-16T09:48:47.372Z,100492.63
2022-09-16T09:51:38.959Z,100494.84
2022-09-16T09:54:22.062Z,100496.94
2022-09-16T09:56:53.290Z,100493.38
2022-09-16T09:59:31.372Z,100484.66
2022-09-16T10:01:58.893Z,100484.97
2022-09-16T10:04:25.593Z,100487.75
2022-09-16T10:06:55.639Z,100488.25
2022-09-16T10:09:23.101Z,100481.84
2022-09-16T10:11:55.020Z,100493.56
2022-09-16T10:14:34.836Z,100491.97
2022-09-16T10:17:03.803Z,100488.97
2022-09-16T10:19:35.241Z,100495.09
2022-09-16T10:22:23.529Z,100485.44
2022-09-16T10:25:17.283Z,100492.84
2022-09-16T10:27:55.115Z,100477.88
2022-09-16T10:33:03.082Z,100498.75
2022-09-16T10:35:32.355Z,100482.72
2022-09-16T10:38:05.935Z,100482.81
2022-09-16T10:40:33.899Z,100481.59
2022-09-16T10:43:07.292Z,100486.53
2022-09-16T10:45:43.431Z,100470.13
2022-09-16T10:48:17.706Z,100471.34
2022-09-16T10:50:58.385Z,100471.75
2022-09-16T10:53:37.628Z,100473.22
2022-09-16T10:56:29.472Z,100472.50
2022-09-16T10:59:22.344Z,100469.19
2022-09-16T11:02:29.471Z,100473.25
2022-09-16T11:05:31.354Z,100467.09
2022-09-16T11:08:09.616Z,100471.63
2022-09-16T11:10:42.121Z,100468.88
2022-09-16T11:13:47.356Z,100469.13
2022-09-16T11:16:23.102Z,100458.22
2022-09-16T11:19:12.829Z,100466.25
2022-09-16T11:21:57.165Z,100470.38
2022-09-16T11:25:11.242Z,100470.09
2022-09-16T11:27:58.938Z,100461.31
2022-09-16T11:30:25.722Z,100458.97
2022-09-16T11:33:02.803Z,100461.09
2022-09-16T11:35:43.656Z,100464.50
2022-09-16T11:38:42.400Z,100453.19
2022-09-16T11:41:36.540Z,100454.31
2022-09-16T11:44:33.376Z,100450.28
2022-09-16T11:47:16.436Z,100450.41
2022-09-16T11:50:10.939Z,100452.13
2022-09-16T11:53:05.432Z,100453.09
2022-09-16T11:56:06.030Z,100451.16
2022-09-16T11:58:50.649Z,100455.13
2022-09-16T12:01:35.202Z,100459.47
2022-09-16T12:04:20.072Z,100474.28
2022-09-16T12:07:15.651Z,100486.19
2022-09-16T12:09:54.137Z,100484.41
2022-09-16T12:12:26.169Z,100490.34
2022-09-16T12:15:03.271Z,100498.94
2022-09-16T12:17:35.036Z,100497.91
2022-09-16T12:20:22.177Z,100492.34
2022-09-16T12:23:18.665Z,100497.34
2022-09-16T12:26:10.020Z,100500.63
2022-09-16T12:28:52.811Z,100518.78
2022-09-16T12:31:24.284Z,100518.78
2022-09-16T12:34:25.598Z,100525.38
2022-09-16T12:37:00.237Z,100525.66
2022-09-16T12:39:26.709Z,100524.44
2022-09-16T12:42:31.760Z,100543.25
2022-09-16T12:45:04.182Z,100545.88
2022-09-16T12:47:39.409Z,100546.59
2022-09-16T12:50:42.758Z,100537.53
2022-09-16T12:53:38.252Z,100546.03
2022-09-16T12:56:19.690Z,100549.06
2022-09-16T12:59:12.298Z,100560.72
2022-09-16T13:01:48.806Z,100568.47
2022-09-16T13:04:25.755Z,100572.94
2022-09-16T13:06:58.225Z,100569.44
2022-09-16T13:09:28.276Z,100562.38
2022-09-16T13:14:55.073Z,100564.13
2022-09-16T13:17:52.762Z,100560.53
2022-09-16T13:20:21.790Z,100556.81
2022-09-16T13:23:02.295Z,100547.75
2022-09-16T13:25:43.569Z,100543.44
2022-09-16T13:28:29.204Z,100539.44
2022-09-16T13:30:55.930Z,100534.53
2022-09-16T13:33:28.207Z,100537.38
2022-09-16T13:36:14.444Z,100524.44
2022-09-16T13:38:44.564Z,100517.41
2022-09-16T13:41:13.663Z,100523.00
2022-09-16T13:43:43.135Z,100527.19
2022-09-16T13:46:16.122Z,100536.28
2022-09-16T13:49:04.171Z,100541.84
2022-09-16T13:51:36.180Z,100549.31
2022-09-16T13:54:04.523Z,100551.78
2022-09-16T13:56:55.649Z,100550.38
2022-09-16T13:59:51.396Z,100553.16
2022-09-16T14:02:33.218Z,100568.91
2022-09-16T14:05:02.618Z,100565.50
2022-09-16T14:07:45.006Z,100553.06
2022-09-16T14:10:23.880Z,100559.25
2022-09-16T14:12:56.407Z,100547.00
2022-09-16T14:15:24.150Z,100544.59
2022-09-16T14:17:59.491Z,100540.28
2022-09-16T14:20:26.899Z,100536.16
2022-09-16T14:23:18.110Z,100539.84
2022-09-16T14:25:44.624Z,100538.84
2022-09-16T14:28:17.843Z,100537.34
2022-09-16T14:30:58.116Z,100535.13
2022-09-16T14:33:34.893Z,100528.00
2022-09-16T14:36:18.130Z,100533.06
2022-09-16T14:38:49.757Z,100531.22
2022-09-16T14:41:26.995Z,100520.88
2022-09-16T14:43:57.697Z,100506.56
2022-09-16T14:46:24.395Z,100508.22
2022-09-16T14:48:50.963Z,100504.63
2022-09-16T14:51:24.912Z,100499.72
2022-09-16T14:54:15.179Z,100502.41
2022-09-16T14:56:41.922Z,100501.56
2022-09-16T14:59:13.518Z,100503.78
2022-09-16T15:01:41.312Z,100501.19
2022-09-16T15:04:18.608Z,100495.59
2022-09-16T15:06:52.804Z,100489.94
2022-09-16T15:09:25.447Z,100501.81
2022-09-16T15:11:57.238Z,100502.28
2022-09-16T15:14:25.765Z,100513.50
2022-09-16T15:17:03.046Z,100508.41
2022-09-16T15:19:38.005Z,100512.00
2022-09-16T15:22:09.096Z,100512.78
2022-09-16T15:24:41.144Z,100510.31
2022-09-16T15:27:08.759Z,100508.44
2022-09-16T15:29:46.346Z,100504.94
2022-09-16T15:32:23.478Z,100511.50
2022-09-16T15:35:12.364Z,100506.56
2022-09-16T15:37:38.910Z,100510.25
2022-09-16T15:40:33.700Z,100496.19
2022-09-16T15:43:05.887Z,100497.78
2022-09-16T15:45:33.029Z,100491.03
2022-09-16T15:48:05.519Z,100504.69
2022-09-16T15:50:41.006Z,100512.25
2022-09-16T15:53:20.676Z,100517.03
2022-09-16T15:55:50.180Z,100515.34
2022-09-16T15:58:18.676Z,100521.09
2022-09-16T16:01:07.950Z,100513.53
2022-09-16T16:03:55.820Z,100507.78
2022-09-16T16:06:50.613Z,100515.53
2022-09-16T16:09:29.024Z,100519.38
2022-09-16T16:12:00.156Z,100515.09
2022-09-16T16:14:32.636Z,100511.91
2022-09-16T16:17:14.646Z,100513.81
2022-09-16T16:19:47.295Z,100514.44
2022-09-16T16:22:16.102Z,100519.88
2022-09-16T16:24:43.254Z,100527.56
2022-09-16T16:27:10.559Z,100518.06
2022-09-16T16:29:38.872Z,100533.81
2022-09-16T16:32:12.080Z,100541.94
2022-09-16T16:34:43.878Z,100540.38
2022-09-16T16:37:28.015Z,100535.88
2022-09-16T16:39:59.616Z,100531.16
2022-09-16T16:42:28.621Z,100539.63
2022-09-16T16:44:56.494Z,100536.25
2022-09-16T16:47:23.956Z,100541.91
2022-09-16T16:49:51.757Z,100546.38
2022-09-16T16:52:18.593Z,100533.16
2022-09-16T16:54:45.852Z,100539.28
2022-09-16T16:57:12.651Z,100541.75
2022-09-16T16:59:39.227Z,100548.69
2022-09-16T17:02:06.080Z,100543.13
2022-09-16T17:04:32.621Z,100546.13
2022-09-16T17:07:21.842Z,100554.25
2022-09-16T17:09:45.608Z,100552.63
2022-09-16T17:12:12.933Z,100552.47
2022-09-16T17:14:39.659Z,100548.31
2022-09-16T17:17:06.520Z,100549.28
2022-09-16T17:19:33.077Z,100539.50
2022-09-16T17:21:59.613Z,100542.22
2022-09-16T17:24:26.099Z,100557.16
2022-09-16T17:26:52.533Z,100555.00
2022-09-16T17:29:19.141Z,100554.50
2022-09-16T17:31:45.643Z,100557.19
2022-09-16T17:34:14.271Z,100559.34
2022-09-16T17:36:43.397Z,100561.34
2022-09-16T17:39:15.971Z,100562.50
2022-09-16T17:41:44.274Z,100561.66
2022-09-16T17:44:12.419Z,100569.47
2022-09-16T17:46:41.422Z,100568.50
2022-09-16T17:49:14.055Z,100571.16
2022-09-16T17:51:41.144Z,100567.19
2022-09-16T17:54:08.749Z,100573.50
2022-09-16T17:56:36.045Z,100565.19
2022-09-16T17:59:02.553Z,100575.44
2022-09-16T18:01:30.722Z,100570.16
2022-09-16T18:03:57.868Z,100565.53
2022-09-16T18:06:28.326Z,100567.69
2022-09-16T18:08:55.406Z,100563.38
2022-09-16T18:11:22.336Z,100571.50
2022-09-16T18:13:54.429Z,100567.19
2022-09-16T18:16:21.312Z,100570.16
2022-09-16T18:18:52.062Z,100573.50
2022-09-16T18:21:19.761Z,100576.97
2022-09-16T18:23:49.704Z,100583.41
2022-09-16T18:26:17.061Z,100577.97
2022-09-16T18:29:07.935Z,100581.28
2022-09-16T18:31:32.897Z,100581.09
2022-09-16T18:33:59.395Z,100580.44
2022-09-16T18:36:28.508Z,100579.94
2022-09-16T18:38:57.179Z,100582.94
2022-09-16T18:41:30.175Z,100589.22
2022-09-16T18:43:59.848Z,100592.53
2022-09-16T18:46:28.991Z,100594.03
2022-09-16T18:48:56.526Z,100593.38
2022-09-16T18:51:31.826Z,100599.31
2022-09-16T18:54:03.211Z,100599.00
2022-09-16T18:56:32.149Z,100603.63
2022-09-16T18:59:20.418Z,100597.50
2022-09-16T19:01:48.783Z,100605.78
2022-09-16T19:04:17.709Z,100602.81
2022-09-16T19:06:47.503Z,100602.63
2022-09-16T19:09:16.155Z,100607.44
2022-09-16T19:11:43.152Z,100603.97
2022-09-16T19:14:12.476Z,100604.13
2022-09-16T19:16:40.501Z,100601.97
2022-09-16T19:19:08.851Z,100605.25
2022-09-16T19:21:36.202Z,100610.56
2022-09-16T19:24:06.624Z,100606.94
2022-09-16T19:26:37.650Z,100618.69
2022-09-16T19:29:06.773Z,100610.75
2022-09-16T19:31:35.571Z,100613.06
2022-09-16T19:34:02.168Z,100604.59
2022-09-16T19:36:30.188Z,100606.59
2022-09-16T19:38:57.635Z,100603.28
2022-09-16T19:41:27.129Z,100610.09
2022-09-16T19:43:58.361Z,100620.16
2022-09-16T19:46:26.368Z,100610.56
2022-09-16T19:48:53.410Z,100610.75
2022-09-16T19:51:22.961Z,100617.53
2022-09-16T19:53:50.262Z,100624.16
2022-09-16T19:56:25.499Z,100621.66
2022-09-16T19:58:53.017Z,100615.03
2022-09-16T20:01:24.959Z,100620.16
2022-09-16T20:03:52.413Z,100629.59
2022-09-16T20:06:21.758Z,100624.47
2022-09-16T20:08:53.385Z,100624.94
2022-09-16T20:11:22.625Z,100626.31
2022-09-16T20:13:56.871Z,100638.88
2022-09-16T20:16:30.823Z,100624.16
2022-09-16T20:18:58.147Z,100626.44
2022-09-16T20:21:26.550Z,100627.47
2022-09-16T20:23:54.226Z,100635.22
2022-09-16T20:26:21.679Z,100622.97
2022-09-16T20:28:51.254Z,100626.41
2022-09-16T20:31:24.841Z,100633.69
2022-09-16T20:33:52.282Z,100630.19
2022-09-16T20:36:21.203Z,100636.16
2022-09-16T20:38:49.015Z,100635.34
2022-09-16T20:41:15.862Z,100639.78
2022-09-16T20:43:43.171Z,100633.59
2022-09-16T20:46:15.469Z,100644.50
2022-09-16T20:48:42.832Z,100645.59
2022-09-16T20:51:20.200Z,100638.91
2022-09-16T20:53:58.393Z,100639.03
2022-09-16T20:56:26.458Z,100641.19
2022-09-16T20:58:53.514Z,100645.84
2022-09-16T21:01:25.652Z,100655.50
2022-09-16T21:03:54.611Z,100652.63
2022-09-16T21:06:22.038Z,100648.09
2022-09-16T21:08:48.622Z,100656.34
2022-09-16T21:11:17.550Z,100648.56
2022-09-16T21:13:46.363Z,100647.41
2022-09-16T21:16:15.659Z,100649.13
2022-09-16T21:18:43.093Z,100653.47
2022-09-16T21:21:17.761Z,100652.25
2022-09-16T21:23:48.561Z,100653.53
2022-09-16T21:26:17.277Z,100650.88
2022-09-16T21:28:45.116Z,100656.31
2022-09-16T21:31:14.745Z,100658.34
2022-09-16T21:33:43.052Z,100657.53
2022-09-16T21:36:12.402Z,100664.16
2022-09-16T21:38:39.703Z,100659.63
2022-09-16T21:41:09.496Z,100645.78
2022-09-16T21:43:41.822Z,100655.97
2022-09-16T21:46:13.673Z,100655.03
2022-09-16T21:48:40.472Z,100647.88
2022-09-16T21:51:12.345Z,100653.00
2022-09-16T21:53:42.697Z,100650.69
2022-09-16T21:56:27.163Z,100649.22
2022-09-16T21:58:55.551Z,100655.00
2022-09-16T22:01:24.769Z,100661.66
2022-09-16T22:04:02.841Z,100657.16
2022-09-16T22:06:30.197Z,100663.28
2022-09-16T22:09:00.867Z,100672.50
2022-09-16T22:11:30.613Z,100674.06
2022-09-16T22:14:00.613Z,100670.56
2022-09-16T22:16:30.018Z,100671.41
2022-09-16T22:18:59.212Z,100679.03
2022-09-16T22:21:27.479Z,100674.53
2022-09-16T22:23:54.205Z,100679.59
2022-09-16T22:26:23.287Z,100669.84
2022-09-16T22:28:50.818Z,100670.66
2022-09-16T22:31:23.221Z,100669.81
2022-09-16T22:33:51.672Z,100671.97
2022-09-16T22:36:21.636Z,100662.59
2022-09-16T22:38:56.483Z,100665.91
2022-09-16T22:41:24.289Z,100673.47
2022-09-16T22:43:52.866Z,100674.63
2022-09-16T22:46:24.782Z,100667.03
2022-09-16T22:48:52.627Z,100663.59
2022-09-16T22:51:20.599Z,100668.41
2022-09-16T22:53:48.294Z,100671.63
2022-09-16T22:56:18.788Z,100663.09
2022-09-16T22:58:46.490Z,100660.59
2022-09-16T23:01:16.228Z,100667.88
2022-09-16T23:03:44.349Z,100667.69
2022-09-16T23:06:13.723Z,100659.63
2022-09-16T23:08:42.731Z,100669.16
2022-09-16T23:11:17.022Z,100677.09
2022-09-16T23:13:45.408Z,100662.31
2022-09-16T23:16:26.193Z,100662.91
2022-09-16T23:18:54.816Z,100664.56
2022-09-16T23:21:22.299Z,100668.63
2022-09-16T23:23:54.202Z,100667.84
2022-09-16T23:26:23.046Z,100671.63
2022-09-16T23:28:54.838Z,100666.03
2022-09-16T23:31:24.030Z,100667.66
2022-09-16T23:33:50.612Z,100654.56
2022-09-16T23:36:18.173Z,100662.09
2022-09-16T23:38:45.944Z,100663.47
2022-09-16T23:41:15.610Z,100662.31
2022-09-16T23:43:43.496Z,100662.13
2022-09-16T23:46:11.687Z,100672.63
2022-09-16T23:48:38.702Z,100665.53
2022-09-16T23:51:07.299Z,100673.66
2022-09-16T23:53:35.375Z,100660.38
2022-09-16T23:56:10.493Z,100666.91
2022-09-16T23:58:37.190Z,100670.88
